Time;durP1;ratioP1;P1;durP2;ratioP2;P2;SDS_P1;SDS_P2;PMS_P1;PMS_P2;Temp;Humidity;BMP_temperature;BMP_pressure;BME280_temperature;BME280_humidity;BME280_pressure;Samples;Min_cycle;Max_cycle;Signal;HPM_P1;HPM_P2
2021/07/01 00:00:13;;;;;;;7.10;6.40;;;22.70;77.30;;;;;;5089369;28;20471;-92
2021/07/01 00:02:39;;;;;;;7.53;6.50;;;22.70;77.50;;;;;;5073546;28;20033;-92
2021/07/01 00:05:08;;;;;;;7.30;5.68;;;22.60;77.60;;;;;;5076804;28;20040;-92
2021/07/01 00:07:34;;;;;;;6.75;6.07;;;22.70;77.80;;;;;;5076306;28;20044;-92
2021/07/01 00:10:26;;;;;;;6.28;5.68;;;22.60;78.00;;;;;;5093289;28;20040;-92
2021/07/01 00:12:53;;;;;;;6.53;5.93;;;22.60;78.70;;;;;;5076819;28;20032;-92
2021/07/01 00:15:22;;;;;;;7.20;5.65;;;22.60;78.40;;;;;;5076271;28;20040;-92
2021/07/01 00:17:48;;;;;;;7.55;5.35;;;22.60;78.70;;;;;;5077770;28;20020;-92
2021/07/01 00:20:14;;;;;;;7.00;6.30;;;22.50;78.90;;;;;;5093010;28;20036;-92
2021/07/01 00:22:40;;;;;;;7.72;6.07;;;22.50;79.10;;;;;;5077231;28;20075;-91
2021/07/01 00:25:09;;;;;;;7.43;6.68;;;22.50;79.70;;;;;;5093021;28;20032;-92
2021/07/01 00:27:35;;;;;;;8.23;7.35;;;22.50;80.80;;;;;;5075847;28;20178;-91
2021/07/01 00:30:01;;;;;;;8.27;7.47;;;22.50;81.80;;;;;;5092414;28;20094;-93
2021/07/01 00:32:26;;;;;;;9.88;8.45;;;22.50;82.80;;;;;;5092561;28;20036;-92
2021/07/01 00:34:52;;;;;;;8.85;6.50;;;22.50;83.60;;;;;;5075497;28;20032;-91
2021/07/01 00:37:18;;;;;;;9.65;7.10;;;22.40;84.20;;;;;;5092571;28;20044;-91
2021/07/01 00:39:44;;;;;;;10.98;8.00;;;22.40;84.70;;;;;;5092659;28;20050;-88
2021/07/01 00:42:09;;;;;;;8.90;8.00;;;22.40;86.40;;;;;;5075031;28;20131;-90
2021/07/01 00:44:35;;;;;;;9.48;8.25;;;22.40;87.90;;;;;;5092260;28;20036;-92
2021/07/01 00:47:01;;;;;;;8.10;7.28;;;22.40;89.10;;;;;;5092848;28;20135;-92
2021/07/01 00:49:27;;;;;;;8.45;7.65;;;22.40;89.70;;;;;;5075271;28;20044;-89
2021/07/01 00:51:53;;;;;;;9.77;8.57;;;22.40;90.10;;;;;;5092310;28;20037;-92
2021/07/01 00:54:20;;;;;;;12.02;8.50;;;22.50;89.80;;;;;;5075527;28;20040;-92
2021/07/01 00:56:45;;;;;;;9.50;8.38;;;22.40;89.10;;;;;;5077052;28;20036;-89
2021/07/01 00:59:11;;;;;;;8.90;8.00;;;22.40;89.40;;;;;;5092621;28;20040;-89
2021/07/01 01:01:37;;;;;;;8.98;8.05;;;22.40;90.00;;;;;;5077370;28;20029;-88
2021/07/01 01:04:04;;;;;;;9.60;8.07;;;22.30;90.60;;;;;;5075972;28;20173;-90
2021/07/01 01:06:30;;;;;;;10.70;8.55;;;22.20;91.10;;;;;;5078197;28;20035;-91
2021/07/01 01:09:00;;;;;;;9.10;8.10;;;22.10;91.70;;;;;;5081779;28;20067;-92
2021/07/01 01:11:27;;;;;;;12.07;8.05;;;22.00;92.20;;;;;;5080373;28;20110;-92
2021/07/01 01:13:54;;;;;;;9.55;7.18;;;22.00;92.70;;;;;;5075542;28;20043;-93
2021/07/01 01:16:20;;;;;;;8.80;7.38;;;22.00;93.00;;;;;;5075368;28;20036;-93
2021/07/01 01:18:47;;;;;;;10.90;7.38;;;22.00;93.20;;;;;;5092460;28;20032;-90
2021/07/01 01:21:16;;;;;;;9.80;7.82;;;22.10;93.50;;;;;;5077757;28;20058;-93
2021/07/01 01:23:43;;;;;;;10.63;8.10;;;22.10;93.70;;;;;;5075738;28;20066;-91
2021/07/01 01:26:09;;;;;;;16.17;9.32;;;22.10;93.90;;;;;;5076083;28;20036;-90
2021/07/01 01:28:36;;;;;;;11.05;9.60;;;22.20;94.30;;;;;;5076102;28;20059;-92
2021/07/01 01:31:03;;;;;;;10.45;8.43;;;22.20;94.90;;;;;;5075256;28;20060;-91
2021/07/01 01:33:29;;;;;;;11.10;9.02;;;22.20;95.10;;;;;;5074854;28;20500;-92
2021/07/01 01:35:55;;;;;;;10.38;9.38;;;22.20;95.60;;;;;;5091672;28;20068;-90
2021/07/01 01:38:21;;;;;;;10.07;9.07;;;22.20;97.00;;;;;;5091098;28;20400;-92
2021/07/01 01:40:48;;;;;;;9.93;8.93;;;22.10;97.60;;;;;;5074416;28;20040;-91
2021/07/01 01:43:16;;;;;;;10.00;8.45;;;22.10;98.40;;;;;;5074283;28;20036;-91
2021/07/01 01:45:43;;;;;;;9.90;8.30;;;22.10;98.80;;;;;;5074950;28;20137;-92
2021/07/01 01:48:09;;;;;;;8.45;7.60;;;22.00;98.80;;;;;;5075019;28;20049;-90
2021/07/01 01:50:36;;;;;;;8.52;7.60;;;22.00;99.00;;;;;;5074400;28;20044;-91
2021/07/01 01:53:02;;;;;;;9.73;8.15;;;22.00;99.10;;;;;;5074576;28;20444;-92
2021/07/01 01:55:28;;;;;;;13.20;8.32;;;22.00;99.20;;;;;;5091180;28;20028;-91
2021/07/01 01:57:54;;;;;;;10.55;8.70;;;22.10;99.40;;;;;;5075144;28;20091;-92
2021/07/01 02:00:22;;;;;;;9.57;8.68;;;22.00;99.70;;;;;;5091442;28;20393;-91
2021/07/01 02:02:48;;;;;;;10.45;8.68;;;22.00;99.90;;;;;;5074181;28;20041;-90
2021/07/01 02:05:14;;;;;;;8.88;7.03;;;22.00;99.90;;;;;;5075056;28;20028;-92
2021/07/01 02:07:40;;;;;;;7.82;7.00;;;21.90;99.90;;;;;;5075085;28;20046;-92
2021/07/01 02:10:21;;;;;;;7.88;6.75;;;21.90;99.90;;;;;;5075063;28;20041;-92
2021/07/01 02:12:48;;;;;;;7.38;6.55;;;21.90;99.90;;;;;;5077050;28;20044;-92
2021/07/01 02:15:16;;;;;;;6.03;5.53;;;21.90;99.90;;;;;;5075692;28;20039;-92
2021/07/01 02:17:43;;;;;;;6.15;5.55;;;21.90;99.90;;;;;;5074331;28;20132;-91
2021/07/01 02:20:12;;;;;;;6.30;5.80;;;21.90;99.90;;;;;;5073418;28;20056;-91
2021/07/01 02:22:39;;;;;;;6.35;5.63;;;21.90;99.90;;;;;;5073998;28;20063;-91
2021/07/01 02:25:06;;;;;;;5.18;4.47;;;22.00;99.90;;;;;;5073592;28;20035;-92
2021/07/01 02:27:31;;;;;;;4.35;4.05;;;22.00;99.90;;;;;;5073481;28;20044;-91
2021/07/01 02:29:57;;;;;;;5.38;4.65;;;22.00;99.90;;;;;;5090872;28;20044;-90
2021/07/01 02:32:23;;;;;;;5.25;4.75;;;22.00;99.90;;;;;;5077102;28;21406;-91
2021/07/01 02:34:49;;;;;;;5.85;4.68;;;22.00;99.90;;;;;;5090406;28;20044;-90
2021/07/01 02:37:16;;;;;;;4.38;3.97;;;22.00;99.90;;;;;;5091611;28;20028;-90
2021/07/01 02:39:42;;;;;;;6.60;4.32;;;22.00;99.90;;;;;;5073530;28;20120;-90
2021/07/01 02:42:08;;;;;;;5.18;4.63;;;22.00;99.90;;;;;;5073893;28;20037;-89
2021/07/01 02:44:35;;;;;;;5.20;4.70;;;22.00;99.90;;;;;;5090617;28;20044;-89
2021/07/01 02:47:01;;;;;;;6.60;5.47;;;21.90;99.90;;;;;;5089474;28;20029;-89
2021/07/01 02:49:27;;;;;;;5.43;4.82;;;21.90;99.90;;;;;;5074456;28;20385;-90
2021/07/01 02:51:52;;;;;;;6.55;5.40;;;21.90;99.90;;;;;;5072700;28;20032;-89
2021/07/01 02:54:19;;;;;;;6.88;5.72;;;21.90;99.90;;;;;;5089513;28;20568;-90
2021/07/01 02:56:46;;;;;;;6.68;5.35;;;21.90;99.90;;;;;;5072556;28;20523;-91
2021/07/01 02:59:14;;;;;;;7.57;6.50;;;21.90;99.90;;;;;;5072638;28;20494;-90
2021/07/01 03:01:44;;;;;;;7.00;6.10;;;21.90;99.90;;;;;;5072766;28;20115;-91
2021/07/01 03:04:10;;;;;;;7.57;6.05;;;21.90;99.90;;;;;;5074232;28;20032;-90
2021/07/01 03:06:37;;;;;;;6.32;5.72;;;21.90;99.90;;;;;;5074460;28;20033;-90
2021/07/01 03:09:04;;;;;;;7.75;6.10;;;21.90;99.90;;;;;;5072802;28;20033;-91
2021/07/01 03:11:30;;;;;;;6.82;5.53;;;21.90;99.90;;;;;;5074782;28;20072;-90
2021/07/01 03:13:56;;;;;;;6.22;5.63;;;21.90;99.90;;;;;;5075688;28;20402;-90
2021/07/01 03:16:22;;;;;;;5.00;4.60;;;21.90;99.90;;;;;;5073430;28;20029;-90
2021/07/01 03:18:50;;;;;;;6.50;5.80;;;21.90;99.90;;;;;;5075724;28;20167;-90
2021/07/01 03:21:16;;;;;;;6.80;5.40;;;22.00;99.90;;;;;;5079825;28;20035;-90
2021/07/01 03:23:44;;;;;;;6.03;5.43;;;22.00;99.90;;;;;;5076067;28;20046;-91
2021/07/01 03:26:10;;;;;;;6.32;5.30;;;22.00;99.90;;;;;;5077992;28;20035;-89
2021/07/01 03:28:37;;;;;;;6.18;5.43;;;22.10;99.90;;;;;;5072617;28;20032;-90
2021/07/01 03:31:06;;;;;;;6.75;5.97;;;22.10;99.90;;;;;;5073974;28;20036;-91
2021/07/01 03:33:32;;;;;;;6.40;5.80;;;22.20;99.90;;;;;;5072980;28;20037;-92
2021/07/01 03:35:59;;;;;;;7.10;6.40;;;22.20;99.90;;;;;;5072600;28;20051;-91
2021/07/01 03:38:25;;;;;;;7.82;6.05;;;22.30;99.90;;;;;;5071918;28;20090;-92
2021/07/01 03:40:51;;;;;;;5.93;5.43;;;22.40;99.90;;;;;;5072942;28;20032;-90
2021/07/01 03:43:17;;;;;;;6.70;5.63;;;22.40;99.90;;;;;;5074461;28;20092;-90
2021/07/01 03:45:43;;;;;;;6.80;6.10;;;22.50;99.90;;;;;;5076212;28;20029;-90
2021/07/01 03:48:09;;;;;;;6.55;5.93;;;22.60;99.90;;;;;;5073481;28;20494;-90
2021/07/01 03:50:35;;;;;;;7.25;6.55;;;22.60;99.90;;;;;;5088816;28;20455;-90
2021/07/01 03:53:00;;;;;;;8.48;7.18;;;22.70;99.90;;;;;;5092443;28;20040;-91
2021/07/01 03:55:26;;;;;;;7.40;6.60;;;22.80;99.90;;;;;;5089120;28;20036;-90
2021/07/01 03:57:52;;;;;;;7.28;6.47;;;22.70;99.90;;;;;;5088519;28;20110;-90
2021/07/01 04:00:18;;;;;;;8.90;7.75;;;22.80;99.90;;;;;;5089694;28;20470;-91
2021/07/01 04:02:44;;;;;;;9.30;8.27;;;22.80;99.90;;;;;;5089033;28;20039;-90
2021/07/01 04:05:10;;;;;;;9.68;8.63;;;22.80;99.90;;;;;;5092481;28;20082;-88
2021/07/01 04:07:36;;;;;;;10.32;8.75;;;22.70;99.90;;;;;;5075814;28;20036;-91
2021/07/01 04:10:07;;;;;;;11.15;8.70;;;22.60;99.90;;;;;;5089061;28;20458;-91
2021/07/01 04:12:34;;;;;;;10.07;9.07;;;22.50;99.90;;;;;;5073227;28;20508;-91
2021/07/01 04:15:00;;;;;;;10.65;8.95;;;22.40;99.90;;;;;;5072237;28;20067;-89
2021/07/01 04:17:25;;;;;;;13.23;9.98;;;22.40;99.90;;;;;;5088617;28;20041;-91
2021/07/01 04:19:51;;;;;;;10.85;8.52;;;22.30;99.90;;;;;;5088304;28;20080;-92
2021/07/01 04:22:17;;;;;;;11.73;9.10;;;22.30;99.90;;;;;;5088650;28;20123;-91
2021/07/01 04:24:42;;;;;;;10.60;8.90;;;22.40;99.90;;;;;;5088362;28;20029;-91
2021/07/01 04:27:08;;;;;;;13.27;10.25;;;22.40;99.90;;;;;;5088801;28;20438;-91
2021/07/01 04:29:35;;;;;;;11.45;9.60;;;22.50;99.90;;;;;;5088366;28;20033;-91
2021/07/01 04:32:00;;;;;;;11.70;9.07;;;22.60;99.90;;;;;;5071199;28;20040;-93
2021/07/01 04:34:26;;;;;;;12.23;10.23;;;22.70;99.90;;;;;;5088816;28;20504;-90
2021/07/01 04:36:52;;;;;;;15.38;11.77;;;22.80;99.90;;;;;;5088945;28;20041;-92
2021/07/01 04:39:18;;;;;;;17.55;13.48;;;22.90;99.90;;;;;;5089410;28;20465;-90
2021/07/01 04:41:43;;;;;;;17.45;12.98;;;22.90;99.90;;;;;;5088779;28;20040;-90
2021/07/01 04:44:09;;;;;;;15.48;12.02;;;23.00;99.90;;;;;;5089005;28;20037;-90
2021/07/01 04:46:35;;;;;;;14.73;12.05;;;23.00;99.90;;;;;;5089213;28;20397;-88
2021/07/01 04:49:01;;;;;;;14.70;12.07;;;23.10;99.90;;;;;;5073431;28;20037;-88
2021/07/01 04:51:27;;;;;;;12.40;11.10;;;23.00;99.90;;;;;;5091652;28;20433;-88
2021/07/01 04:53:53;;;;;;;15.20;11.45;;;23.10;99.90;;;;;;5074914;28;20037;-91
2021/07/01 04:56:19;;;;;;;12.48;11.18;;;23.10;99.90;;;;;;5074919;28;20543;-88
2021/07/01 04:58:45;;;;;;;11.88;10.88;;;23.20;99.90;;;;;;5076842;28;20115;-88
2021/07/01 05:01:11;;;;;;;10.68;9.68;;;23.20;99.90;;;;;;5092363;28;20425;-88
2021/07/01 05:03:37;;;;;;;12.40;10.07;;;23.40;99.90;;;;;;5092172;28;20075;-90
2021/07/01 05:06:03;;;;;;;11.00;9.95;;;23.50;99.90;;;;;;5091971;28;20029;-90
2021/07/01 05:08:29;;;;;;;11.60;10.38;;;23.70;99.90;;;;;;5076635;28;20166;-91
2021/07/01 05:10:55;;;;;;;11.63;10.32;;;23.70;99.90;;;;;;5074937;28;20135;-89
2021/07/01 05:13:21;;;;;;;11.60;10.20;;;23.80;99.90;;;;;;5093631;28;20123;-88
2021/07/01 05:15:47;;;;;;;12.30;10.40;;;23.70;99.90;;;;;;5076648;28;20120;-89
2021/07/01 05:18:12;;;;;;;11.85;10.02;;;23.70;99.90;;;;;;5091825;28;20435;-91
2021/07/01 05:20:38;;;;;;;11.95;10.75;;;23.70;99.90;;;;;;5091845;28;20029;-92
2021/07/01 05:23:04;;;;;;;11.10;9.45;;;23.60;99.90;;;;;;5091902;28;20135;-88
2021/07/01 05:25:30;;;;;;;11.15;9.07;;;23.60;99.90;;;;;;5091475;28;20481;-90
2021/07/01 05:27:56;;;;;;;10.27;9.27;;;23.60;99.90;;;;;;5091544;28;20068;-88
2021/07/01 05:30:22;;;;;;;9.70;8.80;;;23.70;99.90;;;;;;5075525;28;20409;-92
2021/07/01 05:32:48;;;;;;;12.20;10.65;;;23.80;99.90;;;;;;5075339;28;20135;-91
2021/07/01 05:35:15;;;;;;;14.05;10.75;;;23.80;99.90;;;;;;5075135;28;20467;-93
2021/07/01 05:37:40;;;;;;;12.15;11.05;;;24.00;99.90;;;;;;5092620;28;20043;-91
2021/07/01 05:40:07;;;;;;;13.18;11.75;;;24.00;99.90;;;;;;5091523;28;20040;-91
2021/07/01 05:42:34;;;;;;;12.95;11.43;;;24.10;99.90;;;;;;5077336;28;20037;-93
2021/07/01 05:45:00;;;;;;;16.58;13.15;;;24.20;99.90;;;;;;5077657;28;20065;-91
2021/07/01 05:47:25;;;;;;;13.85;12.48;;;24.40;99.90;;;;;;5092115;28;20033;-91
2021/07/01 05:49:51;;;;;;;15.63;13.73;;;24.50;99.90;;;;;;5093419;28;20049;-91
2021/07/01 05:52:22;;;;;;;14.07;12.68;;;24.60;99.90;;;;;;5092884;28;20028;-93
2021/07/01 05:54:57;;;;;;;14.70;13.18;;;24.70;99.90;;;;;;5092191;28;20041;-91
2021/07/01 05:57:29;;;;;;;13.77;12.48;;;24.90;99.80;;;;;;5075016;28;21895;-93
2021/07/01 05:59:55;;;;;;;17.73;13.73;;;25.10;99.10;;;;;;5089580;28;20482;-90
2021/07/01 06:02:22;;;;;;;13.93;12.52;;;25.20;98.30;;;;;;5075962;28;20021;-91
2021/07/01 06:04:47;;;;;;;13.27;12.05;;;25.30;98.20;;;;;;5075681;28;20040;-93
2021/07/01 06:07:19;;;;;;;13.98;12.48;;;25.40;97.90;;;;;;5092897;28;20038;-93
2021/07/01 06:09:52;;;;;;;12.07;10.88;;;25.50;97.30;;;;;;5075101;28;20044;-93
2021/07/01 06:12:18;;;;;;;11.65;10.45;;;25.70;97.20;;;;;;5080210;28;20029;-92
2021/07/01 06:14:44;;;;;;;15.02;10.70;;;25.80;96.90;;;;;;5092823;28;20131;-93
2021/07/01 06:17:15;;;;;;;11.25;10.25;;;25.90;96.10;;;;;;5077025;28;20131;-93
2021/07/01 06:19:41;;;;;;;11.27;10.10;;;26.00;96.20;;;;;;5076551;28;20052;-91
2021/07/01 06:22:07;;;;;;;11.45;9.68;;;26.10;95.90;;;;;;5094201;28;20024;-93
2021/07/01 06:24:35;;;;;;;11.10;9.90;;;26.20;95.70;;;;;;5091142;28;20382;-92
2021/07/01 06:27:01;;;;;;;12.40;9.02;;;26.30;95.30;;;;;;5075832;28;20048;-93
2021/07/01 06:29:27;;;;;;;9.95;8.95;;;26.40;94.80;;;;;;5074920;28;20020;-92
2021/07/01 06:31:53;;;;;;;10.02;9.13;;;26.60;94.20;;;;;;5076574;28;20043;-93
2021/07/01 06:34:19;;;;;;;10.10;9.13;;;26.80;93.40;;;;;;5092239;28;20359;-93
2021/07/01 06:36:55;;;;;;;12.52;9.60;;;26.90;92.90;;;;;;5093524;28;20072;-93
2021/07/01 06:39:23;;;;;;;10.57;9.57;;;27.10;92.40;;;;;;5088749;22;20051;-92
2021/07/01 06:42:02;;;;;;;10.75;8.98;;;27.30;91.70;;;;;;5086250;28;20036;-92
2021/07/01 06:44:29;;;;;;;12.07;9.32;;;27.60;91.10;;;;;;5062580;28;20045;-92
2021/07/01 06:46:55;;;;;;;10.18;8.95;;;27.80;90.90;;;;;;5059537;28;20032;-93
2021/07/01 06:49:22;;;;;;;10.30;9.02;;;28.00;90.10;;;;;;5075652;28;20032;-93
2021/07/01 06:51:51;;;;;;;10.48;9.38;;;28.20;88.70;;;;;;5060899;28;20094;-93
2021/07/01 06:54:19;;;;;;;11.93;9.07;;;28.30;88.10;;;;;;5074513;28;20028;-92
2021/07/01 06:56:45;;;;;;;10.63;9.02;;;28.50;86.80;;;;;;5097428;28;20037;-92
2021/07/01 06:59:14;;;;;;;9.20;8.40;;;28.70;85.00;;;;;;5097936;28;20029;-92
2021/07/01 07:01:40;;;;;;;9.95;8.95;;;28.70;83.40;;;;;;5089401;28;20063;-92
2021/07/01 07:04:07;;;;;;;9.57;8.18;;;28.80;82.70;;;;;;5066515;28;20032;-93
2021/07/01 07:06:36;;;;;;;11.45;8.43;;;28.70;82.90;;;;;;5059811;28;20041;-93
2021/07/01 07:09:03;;;;;;;9.57;8.60;;;28.80;82.40;;;;;;5077493;28;20032;-92
2021/07/01 07:11:30;;;;;;;13.35;9.07;;;28.80;81.70;;;;;;5066320;28;20052;-91
2021/07/01 07:14:01;;;;;;;9.85;8.85;;;28.90;80.90;;;;;;5135485;23;20126;-89
2021/07/01 07:16:41;;;;;;;11.68;8.18;;;28.90;80.60;;;;;;5071244;28;20059;-89
2021/07/01 07:19:09;;;;;;;9.38;8.48;;;29.00;80.90;;;;;;5071380;28;20039;-89
2021/07/01 07:21:44;;;;;;;11.10;8.80;;;29.20;79.60;;;;;;5071329;28;20037;-89
2021/07/01 07:24:20;;;;;;;9.10;8.20;;;29.40;78.40;;;;;;5070925;28;20491;-89
2021/07/01 07:27:05;;;;;;;8.88;7.97;;;29.60;77.30;;;;;;5071149;28;20075;-89
2021/07/01 07:29:39;;;;;;;8.73;7.32;;;29.90;75.90;;;;;;5088280;28;20427;-90
2021/07/01 07:32:05;;;;;;;8.00;7.30;;;30.20;75.40;;;;;;5072464;28;20060;-91
2021/07/01 07:34:37;;;;;;;8.60;7.15;;;30.40;73.40;;;;;;5051484;28;20033;-90
2021/07/01 07:37:21;;;;;;;8.02;7.22;;;31.20;75.70;;;;;;5051788;28;20065;-91
2021/07/01 07:39:49;;;;;;;8.23;6.57;;;32.30;72.60;;;;;;5050098;28;20044;-91
2021/07/01 07:42:27;;;;;;;8.93;6.90;;;33.60;71.60;;;;;;5052469;28;20032;-91
2021/07/01 07:45:16;;;;;;;7.32;6.63;;;34.80;67.30;;;;;;5072750;23;20055;-92
2021/07/01 07:48:07;;;;;;;9.13;6.70;;;35.70;62.40;;;;;;5074400;28;20037;-91
2021/07/01 07:50:37;;;;;;;8.18;6.18;;;35.90;60.70;;;;;;5096917;22;20425;-93
2021/07/01 07:53:06;;;;;;;6.32;5.70;;;36.20;58.30;;;;;;5074137;28;20025;-90
2021/07/01 07:55:33;;;;;;;6.25;5.65;;;35.90;58.40;;;;;;5077922;28;20569;-92
2021/07/01 07:58:04;;;;;;;6.22;5.63;;;35.30;57.80;;;;;;5084178;28;20032;-93
2021/07/01 08:00:29;;;;;;;7.45;5.57;;;34.80;58.70;;;;;;5089956;28;20048;-91
2021/07/01 08:03:06;;;;;;;6.13;5.53;;;34.40;58.80;;;;;;5118042;22;20059;-91
2021/07/01 08:05:33;;;;;;;6.53;5.35;;;33.90;58.70;;;;;;5095658;22;20057;-91
2021/07/01 08:08:15;;;;;;;8.68;6.40;;;33.40;59.90;;;;;;5070298;28;20036;-91
2021/07/01 08:13:09;;;;;;;7.47;6.28;;;32.80;60.40;;;;;;5086218;23;20052;-91
2021/07/01 08:15:38;;;;;;;6.85;6.25;;;32.60;60.90;;;;;;5086394;28;20048;-89
2021/07/01 08:24:04;;;;;;;7.05;5.93;;;32.20;59.80;;;;;;5069017;22;20044;-92
2021/07/01 08:29:00;;;;;;;6.95;6.25;;;32.70;61.30;;;;;;5038036;28;20045;-88
2021/07/01 08:31:29;;;;;;;7.28;6.40;;;33.00;61.00;;;;;;5035061;28;20115;-92
2021/07/01 08:33:56;;;;;;;7.03;6.00;;;33.20;60.40;;;;;;5035321;28;20030;-88
2021/07/01 08:36:24;;;;;;;7.13;6.28;;;33.70;60.50;;;;;;5036024;28;20490;-88
2021/07/01 08:38:52;;;;;;;7.45;6.72;;;34.20;59.70;;;;;;5034009;28;20026;-90
2021/07/01 08:41:25;;;;;;;7.00;6.40;;;34.50;59.00;;;;;;5039732;28;20037;-94
2021/07/01 08:43:57;;;;;;;6.55;5.93;;;34.70;58.30;;;;;;5038833;28;20068;-92
2021/07/01 08:46:24;;;;;;;6.68;5.32;;;34.90;58.60;;;;;;5034513;28;20036;-93
2021/07/01 08:49:01;;;;;;;6.88;6.03;;;35.30;58.20;;;;;;5043853;28;20060;-93
2021/07/01 08:51:35;;;;;;;6.07;5.05;;;36.00;57.40;;;;;;5043384;28;20045;-90
2021/07/01 08:54:06;;;;;;;6.32;5.68;;;36.70;56.90;;;;;;5059109;22;20029;-91
2021/07/01 08:56:37;;;;;;;5.82;5.32;;;36.90;55.10;;;;;;5079305;28;20036;-91
2021/07/01 08:59:07;;;;;;;5.68;5.10;;;37.50;55.70;;;;;;5092768;28;20495;-92
2021/07/01 09:01:36;;;;;;;6.75;6.05;;;38.30;54.70;;;;;;5075887;28;20037;-91
2021/07/01 09:04:04;;;;;;;6.85;5.63;;;38.90;53.20;;;;;;5080817;28;20543;-93
2021/07/01 09:06:36;;;;;;;6.70;5.32;;;39.10;52.30;;;;;;5078286;28;20037;-92
2021/07/01 09:09:12;;;;;;;4.95;4.53;;;39.10;52.10;;;;;;5080238;28;20104;-93
2021/07/01 09:11:46;;;;;;;7.47;5.05;;;39.40;52.40;;;;;;5081124;28;20041;-94
2021/07/01 09:14:14;;;;;;;7.38;5.18;;;39.90;51.60;;;;;;5078227;28;20039;-93
2021/07/01 09:16:40;;;;;;;5.10;4.60;;;40.00;51.00;;;;;;5081350;28;20566;-92
2021/07/01 09:19:06;;;;;;;7.20;4.80;;;40.00;50.80;;;;;;5094488;28;20036;-93
2021/07/01 09:21:34;;;;;;;5.13;4.63;;;40.10;50.60;;;;;;5094488;28;20028;-93
2021/07/01 09:24:02;;;;;;;8.23;4.82;;;40.30;50.40;;;;;;5077979;28;20029;-92
2021/07/01 09:26:29;;;;;;;7.20;5.07;;;40.50;49.60;;;;;;5075958;28;20123;-92
2021/07/01 09:28:57;;;;;;;8.38;5.72;;;40.30;48.50;;;;;;5084852;28;20063;-93
2021/07/01 09:31:25;;;;;;;7.93;5.72;;;39.80;48.20;;;;;;5087348;28;20405;-92
2021/07/01 09:33:52;;;;;;;7.13;5.35;;;39.20;49.10;;;;;;5080933;28;20064;-92
2021/07/01 09:36:24;;;;;;;6.53;4.75;;;39.20;49.80;;;;;;5076668;28;20043;-93
2021/07/01 09:38:52;;;;;;;4.60;4.18;;;39.30;49.80;;;;;;5075301;28;20036;-90
2021/07/01 09:41:22;;;;;;;6.93;4.90;;;39.20;49.60;;;;;;5088899;28;20033;-93
2021/07/01 09:43:49;;;;;;;6.13;5.47;;;39.20;48.70;;;;;;5095567;28;20055;-93
2021/07/01 09:46:19;;;;;;;7.25;5.15;;;38.60;48.60;;;;;;5089961;28;20033;-93
2021/07/01 09:48:49;;;;;;;7.13;4.75;;;38.00;49.70;;;;;;5080789;28;20529;-94
2021/07/01 09:51:16;;;;;;;5.72;5.03;;;37.80;50.30;;;;;;5076821;28;20047;-92
2021/07/01 09:53:49;;;;;;;4.80;4.40;;;38.10;50.50;;;;;;5074554;28;20040;-91
2021/07/01 09:56:23;;;;;;;13.82;4.85;;;38.50;50.10;;;;;;5080277;28;20500;-91
2021/07/01 09:58:51;;;;;;;5.10;4.20;;;39.20;49.40;;;;;;5076480;28;20032;-91
2021/07/01 10:01:36;;;;;;;4.57;4.18;;;39.80;48.80;;;;;;5075021;28;20043;-91
2021/07/01 10:04:02;;;;;;;5.43;4.53;;;40.10;48.10;;;;;;5084556;22;20063;-90
2021/07/01 10:06:28;;;;;;;6.70;4.57;;;40.20;47.60;;;;;;5075581;28;20044;-87
2021/07/01 10:08:55;;;;;;;4.40;4.00;;;39.90;47.50;;;;;;5093975;28;20116;-92
2021/07/01 10:11:41;;;;;;;4.90;4.40;;;39.70;47.90;;;;;;5081217;22;20516;-88
2021/07/01 10:14:12;;;;;;;5.90;5.30;;;39.60;47.50;;;;;;5075905;28;20496;-89
2021/07/01 10:16:38;;;;;;;10.25;5.57;;;39.00;47.50;;;;;;5077490;28;20135;-89
2021/07/01 10:19:07;;;;;;;5.97;4.75;;;38.60;48.20;;;;;;5086860;28;20552;-89
2021/07/01 10:21:35;;;;;;;8.13;4.82;;;38.40;48.90;;;;;;5083477;28;20106;-90
2021/07/01 10:24:12;;;;;;;6.45;4.93;;;38.80;48.80;;;;;;5077370;28;20039;-92
2021/07/01 10:26:41;;;;;;;5.00;4.50;;;39.30;47.00;;;;;;5087374;28;20040;-92
2021/07/01 10:29:20;;;;;;;8.43;5.97;;;39.60;48.10;;;;;;5085931;28;20104;-91
2021/07/01 10:31:51;;;;;;;10.88;7.22;;;40.40;48.40;;;;;;5086270;28;20051;-92
2021/07/01 10:34:17;;;;;;;9.82;8.27;;;41.20;48.30;;;;;;5092283;28;20129;-91
2021/07/01 10:36:43;;;;;;;9.80;8.73;;;42.00;47.80;;;;;;5099334;28;20473;-90
2021/07/01 10:39:09;;;;;;;11.68;9.40;;;42.30;46.40;;;;;;5096104;28;20033;-91
2021/07/01 10:41:37;;;;;;;9.32;8.30;;;41.80;46.00;;;;;;5098245;28;20040;-92
2021/07/01 10:44:04;;;;;;;10.82;7.95;;;41.10;47.10;;;;;;5078896;28;20032;-92
2021/07/01 10:46:44;;;;;;;9.65;7.70;;;40.60;48.00;;;;;;5076993;28;20060;-89
2021/07/01 10:49:11;;;;;;;10.23;8.85;;;40.60;48.00;;;;;;5077586;28;20029;-92
2021/07/01 10:51:37;;;;;;;10.40;8.40;;;39.90;48.20;;;;;;5075743;28;20083;-91
2021/07/01 10:54:15;;;;;;;8.63;7.80;;;39.40;48.90;;;;;;5090364;28;20060;-90
2021/07/01 10:56:44;;;;;;;10.05;7.97;;;39.50;49.70;;;;;;5073405;28;20072;-89
2021/07/01 10:59:12;;;;;;;10.63;8.35;;;39.80;49.60;;;;;;5076186;28;20036;-92
2021/07/01 11:01:41;;;;;;;8.75;7.88;;;39.80;48.90;;;;;;5076245;28;20068;-92
2021/07/01 11:04:07;;;;;;;7.65;6.85;;;39.90;49.70;;;;;;5075154;28;20028;-91
2021/07/01 11:06:34;;;;;;;7.63;5.07;;;40.30;48.60;;;;;;5073202;28;20039;-88
2021/07/01 11:09:00;;;;;;;5.15;4.20;;;40.40;45.90;;;;;;5075742;28;20103;-88
2021/07/01 11:11:33;;;;;;;7.28;4.00;;;40.10;44.00;;;;;;5075125;28;20063;-89
2021/07/01 11:14:11;;;;;;;3.83;3.35;;;39.70;44.40;;;;;;5092876;28;20029;-90
2021/07/01 11:16:44;;;;;;;4.85;3.40;;;39.50;44.00;;;;;;5072969;28;20114;-90
2021/07/01 11:19:17;;;;;;;4.68;3.60;;;39.40;44.20;;;;;;5073193;28;20119;-89
2021/07/01 11:21:51;;;;;;;3.80;3.40;;;39.40;43.30;;;;;;5073385;28;20041;-90
2021/07/01 11:24:16;;;;;;;4.35;3.33;;;39.20;42.90;;;;;;5073813;28;20501;-88
2021/07/01 11:26:50;;;;;;;3.72;3.03;;;38.80;42.90;;;;;;5073821;28;20044;-89
2021/07/01 11:29:32;;;;;;;9.85;3.17;;;38.70;41.70;;;;;;5072714;28;20477;-91
2021/07/01 11:31:58;;;;;;;4.63;3.50;;;38.70;42.20;;;;;;5074791;28;20421;-91
2021/07/01 11:34:41;;;;;;;3.60;3.30;;;38.80;43.10;;;;;;5074791;28;20056;-90
2021/07/01 11:37:07;;;;;;;6.72;3.78;;;39.10;43.90;;;;;;5073233;28;20036;-91
2021/07/01 11:39:33;;;;;;;4.30;3.38;;;39.30;43.40;;;;;;5090015;28;20055;-89
2021/07/01 11:42:05;;;;;;;6.53;3.30;;;39.30;43.50;;;;;;5075477;28;20032;-90
2021/07/01 11:44:32;;;;;;;5.57;3.25;;;39.20;43.90;;;;;;5073748;28;20090;-88
2021/07/01 11:47:00;;;;;;;4.53;3.15;;;39.20;43.30;;;;;;5073219;28;20059;-89
2021/07/01 11:49:29;;;;;;;4.78;3.30;;;39.10;42.50;;;;;;5073469;28;20040;-90
2021/07/01 11:51:56;;;;;;;4.90;3.42;;;39.20;43.40;;;;;;5075837;28;20024;-92
2021/07/01 11:54:22;;;;;;;3.60;3.00;;;39.50;43.30;;;;;;5072828;28;20555;-89
2021/07/01 11:56:54;;;;;;;3.95;3.03;;;40.00;43.50;;;;;;5086845;28;20135;-93
2021/07/01 11:59:31;;;;;;;5.18;3.40;;;40.40;43.40;;;;;;5069688;28;20403;-91
2021/07/01 12:01:59;;;;;;;5.05;3.70;;;40.80;42.30;;;;;;5072887;28;20046;-88
2021/07/01 12:04:36;;;;;;;4.72;3.47;;;40.50;42.00;;;;;;5075964;28;20036;-89
2021/07/01 12:07:27;;;;;;;5.93;3.50;;;40.30;43.10;;;;;;5077448;28;20033;-88
2021/07/01 12:09:54;;;;;;;4.35;3.58;;;40.70;42.60;;;;;;5075175;28;20040;-90
2021/07/01 12:12:22;;;;;;;9.85;4.13;;;40.50;42.50;;;;;;5081269;28;20048;-91
2021/07/01 12:17:57;;;;;;;4.32;3.38;;;40.70;42.90;;;;;;5038113;28;20635;-88
2021/07/01 12:20:29;;;;;;;4.90;3.75;;;41.20;42.50;;;;;;5050688;28;20450;-91
2021/07/01 12:22:56;;;;;;;4.57;3.78;;;41.10;42.00;;;;;;5034426;28;20172;-90
2021/07/01 12:25:25;;;;;;;4.82;3.42;;;40.70;42.50;;;;;;5017153;28;20039;-94
2021/07/01 12:28:09;;;;;;;4.28;3.08;;;40.30;43.00;;;;;;5015876;28;20041;-90
2021/07/01 12:30:56;;;;;;;3.80;3.00;;;40.40;43.40;;;;;;5018562;28;20050;-92
2021/07/01 12:33:34;;;;;;;3.13;2.80;;;40.90;43.00;;;;;;5021059;28;20037;-89
2021/07/01 12:36:18;;;;;;;6.15;3.30;;;41.50;42.30;;;;;;5035344;28;20033;-92
2021/07/01 12:39:13;;;;;;;6.07;3.40;;;41.50;41.40;;;;;;5034219;28;20033;-90
2021/07/01 12:41:43;;;;;;;6.78;3.63;;;40.90;41.20;;;;;;5034312;28;20038;-92
2021/07/01 12:44:29;;;;;;;5.75;3.20;;;40.20;41.80;;;;;;5034122;28;20030;-91
2021/07/01 12:47:04;;;;;;;6.35;3.58;;;39.80;42.40;;;;;;5032699;28;20489;-90
2021/07/01 12:49:33;;;;;;;6.68;3.05;;;39.60;42.80;;;;;;5031102;28;20491;-90
2021/07/01 12:52:06;;;;;;;4.00;3.17;;;39.10;42.70;;;;;;5032353;28;20160;-92
2021/07/01 12:54:32;;;;;;;;;;;39.10;42.80;;;;;;5031414;28;20034;-89
2021/07/01 12:56:57;;;;;;;5.03;3.15;;;38.80;42.60;;;;;;5030999;28;19913;-89
2021/07/01 12:59:28;;;;;;;4.38;3.00;;;38.70;43.20;;;;;;5031387;28;20122;-89
2021/07/01 13:02:01;;;;;;;5.68;3.38;;;39.00;43.50;;;;;;5031844;28;20045;-93
2021/07/01 13:04:28;;;;;;;4.13;3.13;;;39.20;43.70;;;;;;5031373;28;20037;-89